Time;durP1;ratioP1;P1;durP2;ratioP2;P2;SDS_P1;SDS_P2;PMS_P1;PMS_P2;Temp;Humidity;BMP_temperature;BMP_pressure;BME280_temperature;BME280_humidity;BME280_pressure;Samples;Min_cycle;Max_cycle;Signal;HPM_P1;HPM_P2
2022/11/11 00:03:42;;;;;;;74.18;27.13;;;;;;;;;;10444849;22;20015;-94
2022/11/11 00:07:46;;;;;;;172.77;55.00;;;;;;;;;;10444582;22;20023;-94
2022/11/11 00:11:48;;;;;;;136.93;35.47;;;;;;;;;;10444458;22;20019;-95
2022/11/11 00:15:51;;;;;;;75.07;28.15;;;;;;;;;;10484371;22;19999;-94
2022/11/11 00:28:43;;;;;;;124.40;32.15;;;;;;;;;;10475334;22;20335;-94
2022/11/11 00:32:46;;;;;;;397.98;92.15;;;;;;;;;;10444692;22;20049;-93
2022/11/11 00:36:49;;;;;;;322.90;72.60;;;;;;;;;;10443787;22;20015;-95
2022/11/11 00:40:53;;;;;;;236.45;55.97;;;;;;;;;;10443927;22;20428;-94
2022/11/11 00:44:56;;;;;;;210.90;51.95;;;;;;;;;;10443464;22;20061;-94
2022/11/11 00:53:22;;;;;;;74.10;22.67;;;;;;;;;;10444656;22;20054;-95
2022/11/11 00:57:26;;;;;;;56.83;20.15;;;;;;;;;;10462421;22;20073;-95
2022/11/11 01:01:29;;;;;;;71.25;20.83;;;;;;;;;;10444165;22;20474;-96
2022/11/11 01:05:32;;;;;;;63.83;20.45;;;;;;;;;;10446519;22;20025;-93
2022/11/11 01:09:34;;;;;;;71.82;21.55;;;;;;;;;;10444415;22;20015;-96
2022/11/11 01:13:39;;;;;;;77.35;24.33;;;;;;;;;;10444374;22;20019;-95
2022/11/11 01:17:42;;;;;;;82.53;23.15;;;;;;;;;;10443367;22;20027;-96
2022/11/11 01:21:45;;;;;;;93.03;24.63;;;;;;;;;;10444149;22;20039;-95
2022/11/11 01:25:48;;;;;;;81.38;22.63;;;;;;;;;;10445189;22;20019;-95
2022/11/11 01:29:54;;;;;;;89.15;25.60;;;;;;;;;;10452433;22;20031;-96
2022/11/11 01:33:58;;;;;;;98.03;26.13;;;;;;;;;;10451318;22;20366;-96
2022/11/11 01:38:04;;;;;;;113.35;27.48;;;;;;;;;;10450007;22;20459;-93
2022/11/11 01:42:10;;;;;;;88.82;25.75;;;;;;;;;;10452692;22;20019;-96
2022/11/11 01:46:26;;;;;;;98.47;27.13;;;;;;;;;;10448417;22;20125;-96
2022/11/11 01:50:27;;;;;;;91.18;25.45;;;;;;;;;;10444278;22;20098;-94
2022/11/11 01:54:35;;;;;;;102.05;25.92;;;;;;;;;;10448067;22;20102;-96
2022/11/11 01:58:38;;;;;;;88.93;25.33;;;;;;;;;;10459060;22;20019;-95
2022/11/11 02:02:46;;;;;;;87.57;24.63;;;;;;;;;;10441847;22;20015;-95
2022/11/11 02:06:51;;;;;;;92.57;23.08;;;;;;;;;;10459402;22;20019;-95
2022/11/11 02:10:54;;;;;;;75.85;22.92;;;;;;;;;;10459795;22;20038;-95
2022/11/11 02:15:00;;;;;;;84.45;23.98;;;;;;;;;;10443139;22;20019;-96
2022/11/11 02:19:08;;;;;;;76.82;23.90;;;;;;;;;;10441638;22;20029;-94
2022/11/11 02:23:16;;;;;;;92.80;24.10;;;;;;;;;;10449024;22;20023;-92
2022/11/11 02:27:23;;;;;;;73.57;22.08;;;;;;;;;;10450958;22;20480;-96
2022/11/11 02:31:28;;;;;;;85.25;23.70;;;;;;;;;;10449282;22;20015;-96
2022/11/11 02:35:33;;;;;;;67.57;22.23;;;;;;;;;;10464915;22;20025;-96
2022/11/11 02:39:43;;;;;;;88.35;24.83;;;;;;;;;;10444882;22;20435;-95
2022/11/11 02:43:47;;;;;;;81.03;23.48;;;;;;;;;;10460436;22;20089;-96
2022/11/11 02:47:49;;;;;;;88.10;23.80;;;;;;;;;;10445433;22;20019;-95
2022/11/11 02:51:52;;;;;;;79.82;24.33;;;;;;;;;;10445818;22;20085;-95
2022/11/11 02:55:55;;;;;;;80.00;23.83;;;;;;;;;;10446781;22;20447;-95
2022/11/11 03:00:01;;;;;;;73.68;21.80;;;;;;;;;;10444698;22;20065;-93
2022/11/11 03:04:04;;;;;;;77.65;23.85;;;;;;;;;;10461770;22;20435;-96
2022/11/11 03:08:07;;;;;;;89.05;24.58;;;;;;;;;;10442885;22;20030;-94
2022/11/11 03:12:09;;;;;;;96.35;29.88;;;;;;;;;;10442876;22;20019;-92
2022/11/11 03:17:38;;;;;;;93.80;26.90;;;;;;;;;;10443202;22;20042;-96
2022/11/11 03:29:16;;;;;;;61.90;19.90;;;;;;;;;;10453281;22;20019;-96
2022/11/11 03:33:22;;;;;;;75.35;22.83;;;;;;;;;;10442602;22;20022;-94
2022/11/11 03:41:44;;;;;;;87.88;23.65;;;;;;;;;;10439569;22;20094;-93
2022/11/11 03:45:47;;;;;;;88.72;23.30;;;;;;;;;;10441911;22;20023;-95
2022/11/11 03:49:51;;;;;;;78.15;23.02;;;;;;;;;;10441302;22;20412;-95
2022/11/11 03:53:53;;;;;;;88.72;25.80;;;;;;;;;;10440716;22;20022;-94
2022/11/11 03:57:56;;;;;;;84.13;24.23;;;;;;;;;;10441218;22;20023;-94
2022/11/11 04:10:40;;;;;;;81.80;23.00;;;;;;;;;;10458128;22;20066;-94
2022/11/11 04:23:24;;;;;;;77.07;22.73;;;;;;;;;;10458744;22;20015;-94
2022/11/11 04:27:27;;;;;;;81.90;23.38;;;;;;;;;;10441283;22;20042;-94
2022/11/11 04:31:29;;;;;;;86.60;22.83;;;;;;;;;;10443471;22;20015;-96
2022/11/11 04:35:32;;;;;;;83.85;23.48;;;;;;;;;;10442669;22;20020;-92
2022/11/11 04:48:17;;;;;;;86.25;22.15;;;;;;;;;;10462249;22;20076;-95
2022/11/11 04:52:27;;;;;;;86.63;23.20;;;;;;;;;;10445120;22;20019;-95
2022/11/11 04:56:50;;;;;;;77.85;22.45;;;;;;;;;;10461731;22;20022;-94
2022/11/11 05:00:52;;;;;;;;;;;;;;;;;;10446088;22;20073;-94
2022/11/11 05:04:53;;;;;;;80.90;24.05;;;;;;;;;;10446676;22;19914;-96
2022/11/11 05:08:56;;;;;;;86.63;26.87;;;;;;;;;;10466175;22;20082;-93
2022/11/11 05:21:41;;;;;;;87.97;21.65;;;;;;;;;;10488833;22;20027;-95
2022/11/11 05:25:43;;;;;;;83.13;25.85;;;;;;;;;;10444515;22;20019;-92
2022/11/11 05:29:48;;;;;;;83.70;23.83;;;;;;;;;;10443845;22;20025;-94
2022/11/11 05:33:50;;;;;;;70.82;19.98;;;;;;;;;;10443708;22;20340;-95
2022/11/11 05:42:10;;;;;;;67.90;20.80;;;;;;;;;;10452987;22;20023;-96
2022/11/11 05:46:17;;;;;;;80.75;26.50;;;;;;;;;;10446274;22;20394;-93
2022/11/11 05:50:20;;;;;;;71.32;20.98;;;;;;;;;;10450662;22;20019;-96
2022/11/11 05:54:23;;;;;;;67.07;20.42;;;;;;;;;;10443642;22;20451;-94
2022/11/11 05:58:25;;;;;;;68.53;19.90;;;;;;;;;;10443587;22;20073;-96
2022/11/11 06:02:30;;;;;;;39.47;14.98;;;;;;;;;;10444003;22;20102;-95
2022/11/11 06:06:33;;;;;;;61.30;19.95;;;;;;;;;;10443961;22;20019;-95
2022/11/11 06:10:37;;;;;;;62.30;19.60;;;;;;;;;;10443325;22;20069;-92
2022/11/11 06:14:39;;;;;;;54.83;18.75;;;;;;;;;;10441684;22;20110;-92
2022/11/11 06:18:44;;;;;;;52.33;17.83;;;;;;;;;;10444588;22;20102;-94
2022/11/11 06:22:58;;;;;;;61.85;18.98;;;;;;;;;;10443627;22;20489;-93
2022/11/11 06:27:01;;;;;;;68.68;19.10;;;;;;;;;;10455935;22;20015;-95
2022/11/11 06:31:06;;;;;;;56.88;18.27;;;;;;;;;;10459560;22;20098;-91
2022/11/11 06:35:10;;;;;;;64.40;19.85;;;;;;;;;;10459202;22;20015;-93
2022/11/11 06:39:13;;;;;;;57.90;20.88;;;;;;;;;;10442115;22;20432;-93
2022/11/11 06:43:16;;;;;;;56.55;19.15;;;;;;;;;;10446848;22;20201;-93
2022/11/11 06:47:19;;;;;;;59.35;20.30;;;;;;;;;;10443308;22;20019;-95
2022/11/11 06:51:23;;;;;;;57.22;20.63;;;;;;;;;;10447149;22;20431;-95
2022/11/11 06:55:26;;;;;;;42.40;19.52;;;;;;;;;;10442489;22;20015;-90
2022/11/11 06:59:28;;;;;;;47.88;19.33;;;;;;;;;;10441115;22;20023;-95
2022/11/11 07:03:32;;;;;;;52.55;18.30;;;;;;;;;;10441885;22;20392;-94
2022/11/11 07:07:37;;;;;;;46.28;18.35;;;;;;;;;;10441911;22;20023;-95
2022/11/11 07:11:40;;;;;;;44.65;18.00;;;;;;;;;;10441276;22;20019;-95
2022/11/11 07:15:44;;;;;;;48.38;22.98;;;;;;;;;;10439855;22;20019;-94
2022/11/11 07:19:46;;;;;;;56.75;24.85;;;;;;;;;;10441220;22;20050;-94
2022/11/11 07:23:51;;;;;;;38.67;17.23;;;;;;;;;;10441213;22;20019;-95
2022/11/11 07:27:54;;;;;;;37.75;17.58;;;;;;;;;;10443100;22;20054;-92
2022/11/11 07:31:56;;;;;;;28.33;14.10;;;;;;;;;;10444955;22;20037;-95
2022/11/11 07:35:59;;;;;;;33.15;17.48;;;;;;;;;;10441328;22;20023;-93
2022/11/11 07:40:04;;;;;;;35.28;18.95;;;;;;;;;;10444162;22;20025;-96
2022/11/11 07:44:06;;;;;;;29.02;14.85;;;;;;;;;;10442626;22;20101;-95
2022/11/11 07:48:09;;;;;;;36.00;17.13;;;;;;;;;;10446096;22;20015;-96
2022/11/11 07:52:12;;;;;;;31.52;15.27;;;;;;;;;;10449416;22;20023;-94
2022/11/11 07:56:30;;;;;;;27.17;13.77;;;;;;;;;;10458483;22;20071;-94
2022/11/11 08:00:47;;;;;;;50.55;21.75;;;;;;;;;;10464869;22;20023;-94
2022/11/11 08:05:13;;;;;;;29.08;15.35;;;;;;;;;;10466059;22;20024;-95
2022/11/11 08:20:23;;;;;;;22.42;11.63;;;;;;;;;;10441747;22;20023;-94
2022/11/11 08:24:39;;;;;;;25.90;13.32;;;;;;;;;;10362854;22;20040;-93
2022/11/11 08:28:42;;;;;;;28.80;14.35;;;;;;;;;;10346967;23;20525;-93
2022/11/11 08:32:47;;;;;;;21.73;10.70;;;;;;;;;;10342053;23;20091;-94
2022/11/11 08:36:49;;;;;;;21.38;12.70;;;;;;;;;;10317982;23;20024;-94
2022/11/11 08:40:54;;;;;;;15.27;8.75;;;;;;;;;;10331216;23;20364;-91
2022/11/11 08:45:18;;;;;;;24.10;10.93;;;;;;;;;;10332995;23;20050;-93
2022/11/11 08:54:16;;;;;;;24.83;12.13;;;;;;;;;;10376006;22;20074;-95
2022/11/11 09:07:40;;;;;;;19.15;11.25;;;;;;;;;;10396671;22;20028;-96
2022/11/11 09:11:49;;;;;;;21.30;11.50;;;;;;;;;;10364477;22;20050;-94
2022/11/11 09:16:03;;;;;;;20.10;12.05;;;;;;;;;;10384836;22;20020;-95
2022/11/11 09:20:10;;;;;;;20.13;10.95;;;;;;;;;;10434639;22;20041;-95
2022/11/11 09:24:15;;;;;;;20.35;10.45;;;;;;;;;;10442859;22;20023;-94
2022/11/11 09:28:23;;;;;;;23.85;10.77;;;;;;;;;;10440556;22;20031;-94
2022/11/11 09:32:31;;;;;;;22.73;11.82;;;;;;;;;;10442922;22;20071;-95
2022/11/11 09:36:41;;;;;;;23.63;12.90;;;;;;;;;;10442644;22;20026;-96
2022/11/11 09:41:11;;;;;;;20.48;10.80;;;;;;;;;;10416284;22;20093;-94
2022/11/11 09:45:24;;;;;;;24.15;11.07;;;;;;;;;;10442270;22;20156;-94
2022/11/11 09:49:54;;;;;;;23.23;11.27;;;;;;;;;;10441905;22;20020;-93
2022/11/11 09:54:04;;;;;;;16.70;7.55;;;;;;;;;;10441994;22;20023;-94
2022/11/11 09:58:20;;;;;;;19.05;10.18;;;;;;;;;;10442077;22;20458;-95
2022/11/11 10:02:33;;;;;;;17.42;7.70;;;;;;;;;;10459747;22;20053;-95
2022/11/11 10:06:39;;;;;;;14.60;7.70;;;;;;;;;;10441880;22;20019;-94
2022/11/11 10:10:47;;;;;;;14.45;6.45;;;;;;;;;;10441943;22;20075;-93
2022/11/11 10:14:52;;;;;;;12.85;6.22;;;;;;;;;;10440969;22;20098;-95
2022/11/11 10:19:13;;;;;;;14.25;7.05;;;;;;;;;;10442077;22;20026;-92
2022/11/11 10:23:26;;;;;;;12.88;6.57;;;;;;;;;;10441345;22;20019;-96
2022/11/11 10:27:34;;;;;;;14.73;6.97;;;;;;;;;;10455237;22;20022;-91
2022/11/11 10:31:43;;;;;;;13.52;6.30;;;;;;;;;;10450948;22;20448;-91
2022/11/11 10:35:53;;;;;;;11.93;6.15;;;;;;;;;;10438542;22;20363;-93
2022/11/11 10:40:07;;;;;;;12.48;5.10;;;;;;;;;;10439931;22;20559;-92
2022/11/11 10:44:21;;;;;;;11.48;5.03;;;;;;;;;;10480048;22;20041;-94
2022/11/11 10:48:34;;;;;;;12.30;4.72;;;;;;;;;;10493708;22;20367;-95
2022/11/11 10:52:42;;;;;;;8.35;4.70;;;;;;;;;;10482096;22;20023;-89
2022/11/11 10:56:54;;;;;;;17.45;8.40;;;;;;;;;;10483138;22;20023;-90
2022/11/11 11:01:05;;;;;;;12.55;5.20;;;;;;;;;;10483206;22;20466;-90
2022/11/11 11:05:21;;;;;;;17.25;6.13;;;;;;;;;;10463024;22;20046;-90
2022/11/11 11:09:27;;;;;;;18.63;7.85;;;;;;;;;;10461565;22;20023;-90
2022/11/11 11:13:37;;;;;;;14.00;5.93;;;;;;;;;;10459407;22;20019;-94
2022/11/11 11:17:49;;;;;;;10.43;5.22;;;;;;;;;;10455250;22;20011;-90
2022/11/11 11:21:59;;;;;;;14.25;5.43;;;;;;;;;;10437072;22;20030;-93
2022/11/11 11:26:04;;;;;;;49.22;25.42;;;;;;;;;;10450325;22;20019;-92
2022/11/11 11:30:16;;;;;;;36.17;19.63;;;;;;;;;;10433572;22;20447;-91
2022/11/11 11:34:18;;;;;;;14.02;6.72;;;;;;;;;;10450830;22;20375;-93
2022/11/11 11:38:41;;;;;;;13.90;5.63;;;;;;;;;;10432170;22;20023;-91
2022/11/11 11:42:45;;;;;;;12.38;5.20;;;;;;;;;;10450513;22;20165;-90
2022/11/11 11:47:08;;;;;;;13.82;5.88;;;;;;;;;;10460601;22;20019;-91
2022/11/11 11:51:33;;;;;;;17.65;9.65;;;;;;;;;;10285936;22;20030;-92
2022/11/11 11:55:40;;;;;;;18.35;6.80;;;;;;;;;;10456327;22;20566;-89
2022/11/11 11:59:51;;;;;;;13.77;6.63;;;;;;;;;;10456992;22;20022;-92
2022/11/11 12:04:42;;;;;;;18.53;8.90;;;;;;;;;;10455228;22;20019;-92
2022/11/11 12:08:56;;;;;;;19.48;8.20;;;;;;;;;;10385544;22;20027;-92
2022/11/11 12:13:13;;;;;;;23.45;13.35;;;;;;;;;;10457176;22;20019;-94
2022/11/11 12:17:30;;;;;;;17.65;9.38;;;;;;;;;;10459160;22;20087;-91
2022/11/11 12:21:45;;;;;;;16.50;6.53;;;;;;;;;;10450900;22;20027;-94
2022/11/11 12:26:00;;;;;;;14.40;7.68;;;;;;;;;;10446697;22;20153;-96
2022/11/11 12:30:18;;;;;;;15.00;7.47;;;;;;;;;;10443571;22;20019;-96
2022/11/11 12:34:51;;;;;;;17.65;7.60;;;;;;;;;;10461325;22;20023;-95
2022/11/11 12:39:00;;;;;;;15.82;6.85;;;;;;;;;;10443335;22;20015;-94
2022/11/11 12:43:15;;;;;;;19.70;9.32;;;;;;;;;;10459092;22;20019;-93
2022/11/11 12:47:31;;;;;;;14.98;8.23;;;;;;;;;;10440488;22;20023;-94
2022/11/11 12:51:51;;;;;;;15.88;9.35;;;;;;;;;;10458959;22;20019;-94
2022/11/11 12:56:05;;;;;;;18.10;7.80;;;;;;;;;;10458839;22;20026;-94
2022/11/11 13:00:14;;;;;;;12.35;7.13;;;;;;;;;;10456664;22;20103;-92
2022/11/11 13:04:33;;;;;;;13.07;7.53;;;;;;;;;;10411366;22;20097;-93
2022/11/11 13:09:05;;;;;;;14.90;7.43;;;;;;;;;;10458973;22;20444;-94
2022/11/11 13:13:40;;;;;;;12.15;7.28;;;;;;;;;;10434243;22;20030;-94
2022/11/11 13:17:44;;;;;;;15.57;6.10;;;;;;;;;;10438965;22;20031;-93
2022/11/11 13:22:09;;;;;;;15.32;6.68;;;;;;;;;;10443967;22;20019;-94
2022/11/11 13:26:30;;;;;;;13.98;7.80;;;;;;;;;;10458943;22;20019;-95
2022/11/11 13:30:46;;;;;;;13.90;7.63;;;;;;;;;;10442127;22;20447;-92
2022/11/11 13:34:51;;;;;;;12.82;6.18;;;;;;;;;;10458201;22;20026;-92
2022/11/11 13:38:58;;;;;;;15.27;6.00;;;;;;;;;;10441439;22;20015;-95
2022/11/11 13:43:04;;;;;;;13.07;5.30;;;;;;;;;;10441276;22;20015;-92
2022/11/11 13:47:46;;;;;;;12.30;5.70;;;;;;;;;;10440012;22;20019;-95
2022/11/11 13:51:58;;;;;;;13.32;7.55;;;;;;;;;;10421868;22;20115;-93
2022/11/11 13:56:06;;;;;;;20.15;8.60;;;;;;;;;;10456935;22;20459;-95
2022/11/11 14:00:36;;;;;;;18.50;9.55;;;;;;;;;;10456869;22;20451;-93
2022/11/11 14:05:13;;;;;;;16.48;7.68;;;;;;;;;;10452930;22;20373;-91
2022/11/11 14:09:50;;;;;;;16.50;7.43;;;;;;;;;;10434673;22;20023;-89
2022/11/11 14:14:39;;;;;;;16.85;7.82;;;;;;;;;;10405198;22;20042;-92
2022/11/11 14:18:45;;;;;;;22.90;10.50;;;;;;;;;;10404952;22;20023;-90
2022/11/11 14:22:48;;;;;;;18.63;9.40;;;;;;;;;;10450588;22;20110;-91
2022/11/11 14:27:18;;;;;;;20.95;9.82;;;;;;;;;;10431864;22;20076;-91
2022/11/11 14:32:01;;;;;;;20.00;10.57;;;;;;;;;;10452204;22;20057;-89
2022/11/11 14:36:18;;;;;;;15.73;10.18;;;;;;;;;;10431005;22;20051;-90
2022/11/11 14:44:51;;;;;;;14.65;7.78;;;;;;;;;;10427690;22;20023;-92
2022/11/11 14:49:04;;;;;;;17.13;8.18;;;;;;;;;;10450605;22;20347;-90
2022/11/11 14:53:17;;;;;;;19.50;9.73;;;;;;;;;;10450906;22;20054;-90
2022/11/11 14:57:26;;;;;;;14.45;7.95;;;;;;;;;;10449250;22;20080;-91
2022/11/11 15:01:39;;;;;;;33.95;14.93;;;;;;;;;;10451172;22;20016;-91
2022/11/11 15:05:55;;;;;;;21.65;10.98;;;;;;;;;;10450966;22;20015;-91
2022/11/11 15:10:15;;;;;;;17.13;8.93;;;;;;;;;;10451223;22;20029;-93
2022/11/11 15:14:27;;;;;;;25.92;11.05;;;;;;;;;;10446624;22;20736;-90
2022/11/11 15:19:01;;;;;;;14.40;7.72;;;;;;;;;;10448607;22;20317;-90
2022/11/11 15:23:25;;;;;;;19.05;9.25;;;;;;;;;;10431902;22;20015;-91
2022/11/11 15:27:48;;;;;;;18.80;10.50;;;;;;;;;;10433917;22;20549;-91
2022/11/11 15:32:20;;;;;;;28.95;13.57;;;;;;;;;;10450799;22;20098;-93
2022/11/11 15:41:27;;;;;;;23.13;11.50;;;;;;;;;;10429763;22;20108;-90
2022/11/11 15:45:53;;;;;;;35.50;15.13;;;;;;;;;;10424943;22;20019;-92
2022/11/11 15:50:04;;;;;;;27.00;11.50;;;;;;;;;;10449742;22;20073;-92
2022/11/11 15:59:23;;;;;;;68.45;23.60;;;;;;;;;;10423740;22;20086;-92
2022/11/11 16:03:46;;;;;;;40.67;16.48;;;;;;;;;;10450440;22;20019;-92
2022/11/11 16:08:00;;;;;;;33.88;16.00;;;;;;;;;;10450407;22;20019;-91
2022/11/11 16:16:59;;;;;;;28.05;12.23;;;;;;;;;;10431925;22;20034;-92
2022/11/11 16:21:39;;;;;;;29.63;14.75;;;;;;;;;;10449747;22;20019;-91
2022/11/11 16:26:03;;;;;;;26.73;13.38;;;;;;;;;;10430951;22;20431;-91
2022/11/11 16:34:53;;;;;;;23.02;9.90;;;;;;;;;;10430331;22;20019;-92
2022/11/11 16:39:21;;;;;;;17.83;8.85;;;;;;;;;;10450298;22;20095;-92
2022/11/11 16:43:39;;;;;;;23.23;12.57;;;;;;;;;;10434433;22;20094;-91
2022/11/11 16:47:55;;;;;;;36.43;16.00;;;;;;;;;;10452612;22;20019;-91
2022/11/11 16:52:10;;;;;;;25.30;13.18;;;;;;;;;;10451833;22;20258;-92
2022/11/11 17:00:53;;;;;;;18.75;8.63;;;;;;;;;;10430130;22;20740;-92
2022/11/11 17:09:38;;;;;;;20.20;8.90;;;;;;;;;;10436461;22;20336;-93
2022/11/11 17:13:42;;;;;;;20.95;9.40;;;;;;;;;;10456518;22;19999;-93
2022/11/11 17:17:45;;;;;;;15.77;8.30;;;;;;;;;;10483383;22;20033;-93
2022/11/11 17:21:48;;;;;;;24.13;11.00;;;;;;;;;;10482822;22;20010;-93
2022/11/11 17:26:04;;;;;;;19.80;10.73;;;;;;;;;;10469543;22;20022;-94
2022/11/11 17:30:36;;;;;;;25.40;10.60;;;;;;;;;;10497022;22;20015;-93
2022/11/11 17:34:45;;;;;;;24.45;10.60;;;;;;;;;;10482876;22;19999;-93
2022/11/11 17:38:49;;;;;;;21.25;10.85;;;;;;;;;;10468535;22;20019;-93
2022/11/11 17:42:54;;;;;;;24.20;11.45;;;;;;;;;;10452773;22;20023;-94
2022/11/11 17:47:05;;;;;;;25.63;11.80;;;;;;;;;;10450561;22;20019;-92
2022/11/11 17:51:11;;;;;;;24.67;12.17;;;;;;;;;;10459988;22;20139;-95
2022/11/11 17:55:17;;;;;;;28.63;13.63;;;;;;;;;;10444064;22;20034;-93
2022/11/11 17:59:26;;;;;;;35.47;16.30;;;;;;;;;;10374429;22;20051;-94
2022/11/11 18:03:30;;;;;;;25.77;11.80;;;;;;;;;;10389434;22;20023;-93
2022/11/11 18:07:33;;;;;;;28.13;12.90;;;;;;;;;;10388030;22;20022;-93
2022/11/11 18:11:39;;;;;;;25.40;11.27;;;;;;;;;;10388339;22;20373;-94
2022/11/11 18:15:46;;;;;;;22.73;11.82;;;;;;;;;;10406781;22;20019;-93
2022/11/11 18:19:49;;;;;;;23.75;11.48;;;;;;;;;;10405045;22;20019;-94
2022/11/11 18:23:52;;;;;;;24.92;11.68;;;;;;;;;;10386698;22;20026;-94
2022/11/11 18:27:56;;;;;;;20.25;9.50;;;;;;;;;;10387004;22;20019;-94
2022/11/11 18:32:04;;;;;;;22.15;12.00;;;;;;;;;;10384340;22;20019;-93
2022/11/11 18:36:15;;;;;;;24.92;11.10;;;;;;;;;;10399323;22;20070;-94
2022/11/11 18:40:20;;;;;;;;;;;;;;;;;;10396218;22;20020;-93
2022/11/11 18:44:23;;;;;;;20.80;10.82;;;;;;;;;;10390203;22;19915;-93
2022/11/11 18:48:28;;;;;;;26.05;11.68;;;;;;;;;;10389500;22;20050;-92
2022/11/11 18:53:17;;;;;;;24.77;11.23;;;;;;;;;;10391014;22;20035;-92
2022/11/11 18:57:21;;;;;;;21.83;11.48;;;;;;;;;;10390437;22;20041;-92
2022/11/11 19:01:30;;;;;;;25.52;11.18;;;;;;;;;;10387826;22;20103;-92
2022/11/11 19:05:36;;;;;;;21.77;10.68;;;;;;;;;;10388772;22;20034;-92
2022/11/11 19:09:38;;;;;;;30.05;13.25;;;;;;;;;;10365504;22;20102;-93
2022/11/11 19:13:42;;;;;;;27.90;13.82;;;;;;;;;;10392306;22;20061;-94
2022/11/11 19:17:45;;;;;;;21.67;11.35;;;;;;;;;;10393198;22;20015;-92
2022/11/11 19:21:53;;;;;;;26.25;11.90;;;;;;;;;;10391537;22;20020;-93
2022/11/11 19:25:58;;;;;;;22.17;11.20;;;;;;;;;;10392587;22;20023;-93
2022/11/11 19:30:02;;;;;;;23.35;11.65;;;;;;;;;;10365838;22;20118;-93
2022/11/11 19:34:05;;;;;;;25.88;11.70;;;;;;;;;;10392195;22;20026;-92
2022/11/11 19:38:10;;;;;;;26.05;11.38;;;;;;;;;;10392370;22;20371;-92
2022/11/11 19:42:14;;;;;;;22.00;12.13;;;;;;;;;;10392439;22;20443;-92
2022/11/11 19:46:20;;;;;;;21.08;10.50;;;;;;;;;;10392623;22;20020;-92
2022/11/11 19:50:23;;;;;;;18.10;10.32;;;;;;;;;;10392610;22;20016;-92
2022/11/11 19:54:29;;;;;;;27.58;10.10;;;;;;;;;;10393871;22;20099;-93
2022/11/11 19:58:32;;;;;;;22.45;9.52;;;;;;;;;;10361835;22;20153;-92
2022/11/11 20:02:35;;;;;;;18.65;10.38;;;;;;;;;;10388411;22;20039;-92
2022/11/11 20:06:38;;;;;;;20.77;9.57;;;;;;;;;;10389524;22;20015;-92
2022/11/11 20:10:45;;;;;;;18.98;9.05;;;;;;;;;;10400038;22;20086;-93
2022/11/11 20:14:48;;;;;;;26.92;10.70;;;;;;;;;;10401397;22;20026;-94
2022/11/11 20:18:54;;;;;;;20.73;10.73;;;;;;;;;;10401810;22;20094;-93
2022/11/11 20:22:57;;;;;;;18.50;10.45;;;;;;;;;;10419278;22;20559;-93
2022/11/11 20:27:01;;;;;;;21.10;11.00;;;;;;;;;;10403446;22;20030;-93
2022/11/11 20:31:08;;;;;;;22.90;10.52;;;;;;;;;;10397419;22;20046;-92
2022/11/11 20:35:11;;;;;;;23.73;11.65;;;;;;;;;;10391455;22;20035;-93
2022/11/11 20:39:13;;;;;;;21.05;11.07;;;;;;;;;;10391702;22;20054;-92
2022/11/11 20:43:18;;;;;;;24.23;11.32;;;;;;;;;;10391048;22;20043;-93
2022/11/11 20:47:21;;;;;;;26.85;11.85;;;;;;;;;;10391578;22;20024;-93
2022/11/11 20:51:25;;;;;;;26.38;10.90;;;;;;;;;;10391812;22;20095;-92
2022/11/11 20:55:27;;;;;;;28.00;11.95;;;;;;;;;;10391392;22;20020;-93
2022/11/11 20:59:32;;;;;;;21.98;10.65;;;;;;;;;;10391481;22;20031;-93
2022/11/11 21:03:35;;;;;;;26.42;11.60;;;;;;;;;;10391982;22;20020;-93
2022/11/11 21:07:39;;;;;;;30.10;12.55;;;;;;;;;;10391732;22;20015;-93
2022/11/11 21:11:41;;;;;;;37.60;13.32;;;;;;;;;;10391390;22;20016;-93
2022/11/11 21:15:46;;;;;;;41.33;14.25;;;;;;;;;;10391493;22;20012;-93
2022/11/11 21:19:49;;;;;;;35.45;12.77;;;;;;;;;;10390274;22;20322;-92
2022/11/11 21:23:55;;;;;;;27.20;11.18;;;;;;;;;;10391159;22;20066;-92
2022/11/11 21:27:58;;;;;;;21.13;10.75;;;;;;;;;;10390991;22;20012;-93
2022/11/11 21:32:03;;;;;;;21.10;10.07;;;;;;;;;;10390807;22;20094;-93
2022/11/11 21:36:07;;;;;;;25.58;12.98;;;;;;;;;;10390907;22;20072;-91
2022/11/11 21:40:12;;;;;;;21.15;10.40;;;;;;;;;;10390342;22;20047;-92
2022/11/11 21:44:14;;;;;;;18.40;8.07;;;;;;;;;;10390673;22;20026;-93
2022/11/11 21:48:19;;;;;;;23.50;12.30;;;;;;;;;;10390461;22;20016;-92
2022/11/11 21:52:22;;;;;;;23.73;11.75;;;;;;;;;;10390359;22;20103;-92
2022/11/11 21:56:26;;;;;;;26.85;11.75;;;;;;;;;;10390335;22;20023;-93
2022/11/11 22:00:29;;;;;;;25.95;12.35;;;;;;;;;;10389797;22;20023;-95
2022/11/11 22:04:33;;;;;;;26.23;12.93;;;;;;;;;;10389995;22;20028;-93
2022/11/11 22:08:36;;;;;;;33.13;14.20;;;;;;;;;;10389826;22;20027;-93
2022/11/11 22:12:39;;;;;;;38.35;14.27;;;;;;;;;;10389939;22;20083;-92
2022/11/11 22:16:41;;;;;;;36.83;13.93;;;;;;;;;;10389913;22;20027;-92
2022/11/11 22:20:46;;;;;;;34.42;13.57;;;;;;;;;;10389762;22;20046;-93
2022/11/11 22:24:48;;;;;;;29.15;12.73;;;;;;;;;;10389886;22;20081;-92
2022/11/11 22:28:51;;;;;;;28.58;11.07;;;;;;;;;;10389781;22;20451;-93
2022/11/11 22:32:54;;;;;;;26.52;10.88;;;;;;;;;;10389801;22;20039;-92
2022/11/11 22:36:58;;;;;;;26.20;10.77;;;;;;;;;;10389343;22;20020;-93
2022/11/11 22:41:02;;;;;;;23.55;10.70;;;;;;;;;;10389728;22;20102;-92
2022/11/11 22:45:05;;;;;;;27.35;11.32;;;;;;;;;;10389321;22;20019;-93
2022/11/11 22:49:12;;;;;;;39.10;13.23;;;;;;;;;;10389480;22;20020;-92
2022/11/11 22:53:17;;;;;;;24.42;11.48;;;;;;;;;;10406653;22;20023;-94
2022/11/11 22:57:19;;;;;;;29.77;11.27;;;;;;;;;;10388822;22;20089;-93
2022/11/11 23:01:24;;;;;;;29.05;10.73;;;;;;;;;;10389383;22;20408;-92
2022/11/11 23:05:27;;;;;;;23.83;10.30;;;;;;;;;;10422275;22;20038;-92
2022/11/11 23:09:35;;;;;;;20.40;10.05;;;;;;;;;;10435877;22;20006;-93
2022/11/11 23:13:38;;;;;;;29.98;11.50;;;;;;;;;;10455339;22;20004;-93
2022/11/11 23:17:41;;;;;;;19.98;9.27;;;;;;;;;;10431037;22;20016;-93
2022/11/11 23:21:43;;;;;;;19.02;9.80;;;;;;;;;;10390041;22;20335;-92
2022/11/11 23:25:47;;;;;;;21.38;9.95;;;;;;;;;;10389640;22;20026;-92
2022/11/11 23:29:50;;;;;;;21.67;11.07;;;;;;;;;;10389092;22;20598;-93
2022/11/11 23:33:54;;;;;;;22.70;10.80;;;;;;;;;;10389083;22;20015;-93
2022/11/11 23:37:57;;;;;;;28.98;10.90;;;;;;;;;;10389011;22;20020;-93
2022/11/11 23:42:01;;;;;;;28.05;11.35;;;;;;;;;;10389440;22;20037;-92
2022/11/11 23:46:04;;;;;;;23.77;11.77;;;;;;;;;;10388697;22;20016;-92
2022/11/11 23:50:08;;;;;;;20.45;9.73;;;;;;;;;;10389058;22;20023;-93
2022/11/11 23:54:11;;;;;;;24.85;10.45;;;;;;;;;;10388867;22;20072;-92
2022/11/11 23:58:15;;;;;;;28.73;11.27;;;;;;;;;;10388884;22;20023;-92
